DLH5T EDDM-EDDB
Flight info
| Callsign | DLH5T |
|---|---|
| Flight time | 0h 53m |
| Altitude | 28000 |
| Route | AKINI1N AKINI Y104 MAMOR L132 RUDNO/N0427F300 T203 TIVDA/N0421F290 DCT ETVIS DCT NAVEK DCT GAVLI/N0428F300 T203 ATGUP ATG06R |
| Aircraft | A20N/M-SDE2E3FGHIRWXY/LB1 |
Departure
| Time | 2026-05-07 05:30 |
|---|---|
| Airport | Munich Airport (EDDM) |
Arrival
| Time | 2026-05-07 06:24 |
|---|---|
| Airport | Berlin Brandenburg Airport (EDDB) |
| Time | Latitude | Longitude | Altitude | Speed | Heading |
|---|---|---|---|---|---|
| 2026-05-07 05:25 | 48.35709 | 11.80081 | 1467 ft | 28 kts | 351° |
| 2026-05-07 05:26 | 48.35824 | 11.79931 | 1467 ft | 23 kts | 263° |
| 2026-05-07 05:26 | 48.35807 | 11.79691 | 1468 ft | 23 kts | 265° |
| 2026-05-07 05:26 | 48.35873 | 11.79516 | 1468 ft | 23 kts | 353° |
| 2026-05-07 05:26 | 48.36045 | 11.79488 | 1466 ft | 25 kts | 354° |
| 2026-05-07 05:27 | 48.36214 | 11.79524 | 1464 ft | 26 kts | 70° |
| 2026-05-07 05:27 | 48.36241 | 11.79807 | 1462 ft | 27 kts | 88° |
| 2026-05-07 05:27 | 48.36260 | 11.80101 | 1461 ft | 29 kts | 82° |
| 2026-05-07 05:27 | 48.36287 | 11.80430 | 1459 ft | 34 kts | 84° |
| 2026-05-07 05:28 | 48.36315 | 11.80810 | 1457 ft | 38 kts | 83° |
| 2026-05-07 05:28 | 48.36347 | 11.81187 | 1454 ft | 18 kts | 74° |
| 2026-05-07 05:28 | 48.36417 | 11.81191 | 1454 ft | 13 kts | 298° |
| 2026-05-07 05:28 | 48.36455 | 11.81059 | 1455 ft | 10 kts | 294° |
| 2026-05-07 05:29 | 48.36487 | 11.80948 | 1455 ft | 12 kts | 292° |
| 2026-05-07 05:29 | 48.36521 | 11.80827 | 1455 ft | 13 kts | 297° |
| 2026-05-07 05:29 | 48.36579 | 11.80696 | 1456 ft | 14 kts | 273° |
| 2026-05-07 05:29 | 48.36556 | 11.80391 | 1457 ft | 63 kts | 264° |
| 2026-05-07 05:30 | 48.36474 | 11.79326 | 1463 ft | 137 kts | 263° |
| 2026-05-07 05:30 | 48.36389 | 11.77771 | 1977 ft | 151 kts | 284° |
| 2026-05-07 05:30 | 48.36953 | 11.76602 | 2822 ft | 149 kts | 328° |
| 2026-05-07 05:30 | 48.38014 | 11.76248 | 3348 ft | 169 kts | 0° |
| 2026-05-07 05:31 | 48.39196 | 11.76568 | 3970 ft | 182 kts | 19° |
| 2026-05-07 05:31 | 48.40335 | 11.77542 | 4490 ft | 199 kts | 34° |
| 2026-05-07 05:31 | 48.41482 | 11.78832 | 5077 ft | 212 kts | 36° |
| 2026-05-07 05:31 | 48.42705 | 11.80226 | 5568 ft | 232 kts | 35° |
| 2026-05-07 05:32 | 48.44077 | 11.81739 | 6074 ft | 254 kts | 34° |
| 2026-05-07 05:32 | 48.45559 | 11.83329 | 6691 ft | 271 kts | 33° |
| 2026-05-07 05:32 | 48.47142 | 11.84998 | 7304 ft | 287 kts | 33° |
| 2026-05-07 05:32 | 48.48809 | 11.86743 | 8115 ft | 292 kts | 33° |
| 2026-05-07 05:33 | 48.50480 | 11.88489 | 9006 ft | 293 kts | 33° |
| 2026-05-07 05:33 | 48.52159 | 11.90243 | 9839 ft | 296 kts | 33° |
| 2026-05-07 05:33 | 48.53849 | 11.92008 | 10642 ft | 299 kts | 33° |
| 2026-05-07 05:33 | 48.55565 | 11.93808 | 11501 ft | 304 kts | 33° |
| 2026-05-07 05:34 | 48.57320 | 11.95650 | 12283 ft | 310 kts | 33° |
| 2026-05-07 05:34 | 48.59090 | 11.97509 | 13018 ft | 316 kts | 33° |
| 2026-05-07 05:34 | 48.60917 | 11.99426 | 13716 ft | 323 kts | 32° |
| 2026-05-07 05:34 | 48.62788 | 12.01375 | 14441 ft | 328 kts | 31° |
| 2026-05-07 05:35 | 48.64806 | 12.03038 | 14991 ft | 338 kts | 22° |
| 2026-05-07 05:35 | 48.67008 | 12.04513 | 15458 ft | 355 kts | 21° |
| 2026-05-07 05:35 | 48.69333 | 12.06057 | 15901 ft | 372 kts | 22° |
| 2026-05-07 05:35 | 48.71764 | 12.07653 | 16243 ft | 388 kts | 20° |
| 2026-05-07 05:36 | 48.74302 | 12.09142 | 16819 ft | 396 kts | 19° |
| 2026-05-07 05:36 | 48.76869 | 12.10637 | 17499 ft | 400 kts | 19° |
| 2026-05-07 05:36 | 48.79476 | 12.12187 | 18197 ft | 404 kts | 20° |
| 2026-05-07 05:36 | 48.82103 | 12.13769 | 18854 ft | 408 kts | 20° |
| 2026-05-07 05:37 | 48.84757 | 12.15384 | 19501 ft | 413 kts | 20° |
| 2026-05-07 05:37 | 48.87414 | 12.17004 | 20151 ft | 416 kts | 20° |
| 2026-05-07 05:37 | 48.90084 | 12.18636 | 20767 ft | 419 kts | 21° |
| 2026-05-07 05:37 | 48.92824 | 12.20309 | 21365 ft | 424 kts | 21° |
| 2026-05-07 05:38 | 48.95547 | 12.21971 | 21997 ft | 427 kts | 21° |
| 2026-05-07 05:38 | 48.98317 | 12.23669 | 22591 ft | 429 kts | 20° |
| 2026-05-07 05:38 | 49.01102 | 12.25375 | 23174 ft | 433 kts | 20° |
| 2026-05-07 05:38 | 49.03930 | 12.27108 | 23786 ft | 436 kts | 21° |
| 2026-05-07 05:39 | 49.06742 | 12.28834 | 24334 ft | 440 kts | 21° |
| 2026-05-07 05:39 | 49.09616 | 12.30602 | 24826 ft | 445 kts | 21° |
| 2026-05-07 05:39 | 49.12520 | 12.32391 | 25277 ft | 450 kts | 21° |
| 2026-05-07 05:39 | 49.15418 | 12.34182 | 25681 ft | 455 kts | 21° |
| 2026-05-07 05:40 | 49.18395 | 12.36023 | 26076 ft | 460 kts | 21° |
| 2026-05-07 05:40 | 49.21361 | 12.37861 | 26482 ft | 465 kts | 21° |
| 2026-05-07 05:40 | 49.24389 | 12.39741 | 26987 ft | 467 kts | 22° |
| 2026-05-07 05:40 | 49.27358 | 12.41585 | 27519 ft | 466 kts | 22° |
| 2026-05-07 05:41 | 49.30398 | 12.43478 | 28034 ft | 467 kts | 22° |
| 2026-05-07 05:41 | 49.33411 | 12.45355 | 28478 ft | 468 kts | 22° |
| 2026-05-07 05:41 | 49.36458 | 12.47254 | 28878 ft | 471 kts | 22° |
| 2026-05-07 05:41 | 49.39467 | 12.49131 | 29319 ft | 472 kts | 22° |
| 2026-05-07 05:42 | 49.42576 | 12.51074 | 29703 ft | 475 kts | 22° |
| 2026-05-07 05:42 | 49.45628 | 12.52985 | 29986 ft | 479 kts | 22° |
| 2026-05-07 05:42 | 49.48742 | 12.54934 | 30242 ft | 483 kts | 22° |
| 2026-05-07 05:42 | 49.51843 | 12.56878 | 30511 ft | 487 kts | 22° |
| 2026-05-07 05:43 | 49.55009 | 12.58862 | 30807 ft | 487 kts | 22° |
| 2026-05-07 05:43 | 49.61333 | 12.62851 | 30910 ft | 500 kts | 22° |
| 2026-05-07 05:44 | 49.67914 | 12.67005 | 30906 ft | 514 kts | 22° |
| 2026-05-07 05:44 | 49.74654 | 12.71273 | 30904 ft | 521 kts | 22° |
| 2026-05-07 05:45 | 49.81413 | 12.75567 | 30901 ft | 522 kts | 22° |
| 2026-05-07 05:45 | 49.88168 | 12.79872 | 30893 ft | 523 kts | 23° |
| 2026-05-07 05:46 | 49.94885 | 12.84167 | 30889 ft | 524 kts | 23° |
| 2026-05-07 05:46 | 50.01363 | 12.88317 | 30883 ft | 524 kts | 23° |
| 2026-05-07 05:47 | 50.08140 | 12.92674 | 30890 ft | 523 kts | 23° |
| 2026-05-07 05:47 | 50.14737 | 12.96928 | 30885 ft | 523 kts | 23° |
| 2026-05-07 05:48 | 50.21339 | 13.01195 | 30889 ft | 522 kts | 23° |
| 2026-05-07 05:48 | 50.28057 | 13.05556 | 30892 ft | 522 kts | 23° |
| 2026-05-07 05:49 | 50.34761 | 13.09916 | 30884 ft | 521 kts | 23° |
| 2026-05-07 05:49 | 50.41473 | 13.14294 | 30876 ft | 521 kts | 23° |
| 2026-05-07 05:50 | 50.48232 | 13.18720 | 30871 ft | 521 kts | 23° |
| 2026-05-07 05:50 | 50.54951 | 13.23109 | 30866 ft | 521 kts | 22° |
| 2026-05-07 05:51 | 50.61637 | 13.27477 | 30864 ft | 521 kts | 22° |
| 2026-05-07 05:51 | 50.68428 | 13.31353 | 30851 ft | 519 kts | 9° |
| 2026-05-07 05:51 | 50.72008 | 13.31873 | 30853 ft | 517 kts | 357° |
| 2026-05-07 05:52 | 50.75532 | 13.31315 | 30855 ft | 512 kts | 346° |
| 2026-05-07 05:52 | 50.82633 | 13.29851 | 30859 ft | 514 kts | 356° |
| 2026-05-07 05:52 | 50.86155 | 13.29826 | 30673 ft | 508 kts | 358° |
| 2026-05-07 05:53 | 50.89669 | 13.29831 | 30146 ft | 501 kts | 358° |
| 2026-05-07 05:53 | 50.93117 | 13.29770 | 29630 ft | 493 kts | 357° |
| 2026-05-07 05:53 | 50.96493 | 13.29646 | 28895 ft | 480 kts | 356° |
| 2026-05-07 05:53 | 50.99797 | 13.29479 | 27583 ft | 477 kts | 356° |
| 2026-05-07 05:54 | 51.03088 | 13.29278 | 26050 ft | 475 kts | 356° |
| 2026-05-07 05:54 | 51.06337 | 13.29062 | 24946 ft | 460 kts | 356° |
| 2026-05-07 05:54 | 51.09480 | 13.28848 | 24032 ft | 442 kts | 356° |
| 2026-05-07 05:54 | 51.12482 | 13.28643 | 22888 ft | 431 kts | 356° |
| 2026-05-07 05:55 | 51.15450 | 13.28440 | 21580 ft | 424 kts | 356° |
| 2026-05-07 05:55 | 51.18337 | 13.28240 | 20362 ft | 417 kts | 356° |
| 2026-05-07 05:55 | 51.21237 | 13.28037 | 19703 ft | 408 kts | 357° |
| 2026-05-07 05:55 | 51.23911 | 13.27858 | 19316 ft | 401 kts | 356° |
| 2026-05-07 05:56 | 51.26741 | 13.27666 | 19004 ft | 403 kts | 355° |
| 2026-05-07 05:56 | 51.29552 | 13.27473 | 18646 ft | 403 kts | 355° |
| 2026-05-07 05:56 | 51.32348 | 13.27280 | 18102 ft | 404 kts | 355° |
| 2026-05-07 05:56 | 51.35165 | 13.27080 | 17443 ft | 406 kts | 355° |
| 2026-05-07 05:57 | 51.38010 | 13.26876 | 16845 ft | 405 kts | 355° |
| 2026-05-07 05:57 | 51.40779 | 13.26680 | 16318 ft | 400 kts | 355° |
| 2026-05-07 05:57 | 51.43555 | 13.26434 | 15781 ft | 396 kts | 353° |
| 2026-05-07 05:57 | 51.46313 | 13.26040 | 15196 ft | 393 kts | 352° |
| 2026-05-07 05:58 | 51.49025 | 13.25621 | 14681 ft | 389 kts | 352° |
| 2026-05-07 05:58 | 51.51699 | 13.25214 | 14192 ft | 383 kts | 352° |
| 2026-05-07 05:58 | 51.54320 | 13.24826 | 13722 ft | 379 kts | 352° |
| 2026-05-07 05:58 | 51.56951 | 13.24442 | 13249 ft | 376 kts | 352° |
| 2026-05-07 05:59 | 51.59545 | 13.24067 | 12781 ft | 373 kts | 353° |
| 2026-05-07 05:59 | 51.62143 | 13.23696 | 12313 ft | 369 kts | 353° |
| 2026-05-07 05:59 | 51.64736 | 13.23328 | 11843 ft | 384 kts | 353° |
| 2026-05-07 05:59 | 51.67433 | 13.22947 | 11325 ft | 391 kts | 353° |
| 2026-05-07 06:00 | 51.70142 | 13.22568 | 10826 ft | 389 kts | 353° |
| 2026-05-07 06:00 | 51.72840 | 13.22190 | 10609 ft | 387 kts | 353° |
| 2026-05-07 06:00 | 51.75529 | 13.21812 | 10420 ft | 386 kts | 353° |
| 2026-05-07 06:00 | 51.78198 | 13.21435 | 10236 ft | 385 kts | 353° |
| 2026-05-07 06:01 | 51.80897 | 13.21052 | 10067 ft | 384 kts | 353° |
| 2026-05-07 06:01 | 51.83554 | 13.20675 | 9812 ft | 383 kts | 353° |
| 2026-05-07 06:01 | 51.86137 | 13.20309 | 9356 ft | 360 kts | 353° |
| 2026-05-07 06:01 | 51.88518 | 13.19973 | 8944 ft | 333 kts | 353° |
| 2026-05-07 06:02 | 51.90780 | 13.19653 | 8559 ft | 309 kts | 353° |
| 2026-05-07 06:02 | 51.92836 | 13.19361 | 8207 ft | 288 kts | 353° |
| 2026-05-07 06:02 | 51.94785 | 13.19084 | 7874 ft | 276 kts | 353° |
| 2026-05-07 06:02 | 51.96695 | 13.18810 | 7546 ft | 272 kts | 353° |
| 2026-05-07 06:03 | 51.98582 | 13.18539 | 7218 ft | 271 kts | 353° |
| 2026-05-07 06:03 | 52.00430 | 13.18275 | 6897 ft | 269 kts | 353° |
| 2026-05-07 06:03 | 52.02292 | 13.18007 | 6573 ft | 267 kts | 354° |
| 2026-05-07 06:03 | 52.04136 | 13.17741 | 6250 ft | 266 kts | 354° |
| 2026-05-07 06:04 | 52.05986 | 13.17474 | 5923 ft | 264 kts | 354° |
| 2026-05-07 06:04 | 52.07813 | 13.17212 | 5600 ft | 262 kts | 354° |
| 2026-05-07 06:04 | 52.09630 | 13.16951 | 5278 ft | 260 kts | 354° |
| 2026-05-07 06:04 | 52.11357 | 13.16702 | 4973 ft | 259 kts | 354° |
| 2026-05-07 06:05 | 52.13168 | 13.16441 | 4657 ft | 257 kts | 355° |
| 2026-05-07 06:05 | 52.14925 | 13.16188 | 4294 ft | 249 kts | 355° |
| 2026-05-07 06:05 | 52.16587 | 13.15949 | 4017 ft | 232 kts | 355° |
| 2026-05-07 06:05 | 52.18179 | 13.15722 | 3767 ft | 227 kts | 356° |
| 2026-05-07 06:06 | 52.19743 | 13.15499 | 3484 ft | 221 kts | 357° |
| 2026-05-07 06:06 | 52.21225 | 13.15768 | 3361 ft | 216 kts | 25° |
| 2026-05-07 06:06 | 52.22501 | 13.17075 | 3387 ft | 219 kts | 36° |
| 2026-05-07 06:06 | 52.23732 | 13.18543 | 3388 ft | 218 kts | 37° |
| 2026-05-07 06:07 | 52.24973 | 13.19985 | 3356 ft | 217 kts | 34° |
| 2026-05-07 06:07 | 52.26221 | 13.21353 | 3317 ft | 216 kts | 34° |
| 2026-05-07 06:07 | 52.27483 | 13.22702 | 3223 ft | 215 kts | 33° |
| 2026-05-07 06:07 | 52.28718 | 13.24065 | 3076 ft | 215 kts | 42° |
| 2026-05-07 06:08 | 52.29585 | 13.25995 | 2934 ft | 215 kts | 63° |
| 2026-05-07 06:08 | 52.30183 | 13.28239 | 2638 ft | 215 kts | 66° |
| 2026-05-07 06:08 | 52.30721 | 13.30545 | 2333 ft | 214 kts | 68° |
| 2026-05-07 06:08 | 52.31236 | 13.32782 | 2025 ft | 211 kts | 69° |
| 2026-05-07 06:09 | 52.31744 | 13.34987 | 1729 ft | 201 kts | 68° |
| 2026-05-07 06:09 | 52.32230 | 13.37043 | 1475 ft | 188 kts | 68° |
| 2026-05-07 06:09 | 52.32670 | 13.38903 | 1273 ft | 163 kts | 68° |
| 2026-05-07 06:09 | 52.33049 | 13.40517 | 1043 ft | 145 kts | 67° |
| 2026-05-07 06:10 | 52.33406 | 13.42047 | 810 ft | 134 kts | 67° |
| 2026-05-07 06:10 | 52.33749 | 13.43497 | 628 ft | 132 kts | 67° |
| 2026-05-07 06:10 | 52.34088 | 13.44921 | 456 ft | 133 kts | 67° |
| 2026-05-07 06:10 | 52.34424 | 13.46340 | 278 ft | 137 kts | 67° |
| 2026-05-07 06:11 | 52.34792 | 13.47905 | 817 ft | 152 kts | 67° |
| 2026-05-07 06:11 | 52.35152 | 13.49436 | 1790 ft | 146 kts | 66° |
| 2026-05-07 06:11 | 52.35519 | 13.50969 | 2515 ft | 152 kts | 66° |
| 2026-05-07 06:11 | 52.35911 | 13.52695 | 3070 ft | 172 kts | 74° |
| 2026-05-07 06:12 | 52.35770 | 13.54722 | 3651 ft | 195 kts | 117° |
| 2026-05-07 06:12 | 52.34813 | 13.56392 | 4282 ft | 213 kts | 135° |
| 2026-05-07 06:12 | 52.33695 | 13.58102 | 4772 ft | 222 kts | 133° |
| 2026-05-07 06:12 | 52.32587 | 13.59852 | 4952 ft | 222 kts | 133° |
| 2026-05-07 06:13 | 52.31387 | 13.61501 | 4989 ft | 225 kts | 151° |
| 2026-05-07 06:13 | 52.29880 | 13.62019 | 4993 ft | 228 kts | 185° |
| 2026-05-07 06:13 | 52.28363 | 13.61151 | 5011 ft | 229 kts | 209° |
| 2026-05-07 06:13 | 52.27019 | 13.59756 | 5011 ft | 229 kts | 213° |
| 2026-05-07 06:14 | 52.25710 | 13.58273 | 5011 ft | 229 kts | 214° |
| 2026-05-07 06:14 | 52.24408 | 13.56777 | 5010 ft | 228 kts | 214° |
| 2026-05-07 06:14 | 52.23101 | 13.55253 | 5009 ft | 228 kts | 219° |
| 2026-05-07 06:14 | 52.22185 | 13.53197 | 4996 ft | 227 kts | 255° |
| 2026-05-07 06:15 | 52.21935 | 13.50652 | 5011 ft | 227 kts | 266° |
| 2026-05-07 06:15 | 52.21814 | 13.48084 | 5010 ft | 227 kts | 266° |
| 2026-05-07 06:15 | 52.21661 | 13.45523 | 5010 ft | 227 kts | 264° |
| 2026-05-07 06:15 | 52.21462 | 13.42965 | 4995 ft | 225 kts | 263° |
| 2026-05-07 06:16 | 52.21234 | 13.40449 | 4855 ft | 218 kts | 262° |
| 2026-05-07 06:16 | 52.21000 | 13.38060 | 4700 ft | 211 kts | 261° |
| 2026-05-07 06:16 | 52.20759 | 13.35736 | 4503 ft | 206 kts | 261° |
| 2026-05-07 06:16 | 52.20517 | 13.33433 | 4208 ft | 204 kts | 261° |
| 2026-05-07 06:17 | 52.20298 | 13.31239 | 4024 ft | 189 kts | 267° |
| 2026-05-07 06:17 | 52.20601 | 13.29319 | 3741 ft | 172 kts | 315° |
| 2026-05-07 06:17 | 52.21576 | 13.28395 | 3508 ft | 156 kts | 347° |
| 2026-05-07 06:17 | 52.22606 | 13.27973 | 3309 ft | 148 kts | 349° |
| 2026-05-07 06:18 | 52.23597 | 13.27557 | 3067 ft | 144 kts | 347° |
| 2026-05-07 06:18 | 52.24559 | 13.27102 | 3028 ft | 144 kts | 347° |
| 2026-05-07 06:18 | 52.25523 | 13.26611 | 3018 ft | 145 kts | 346° |
| 2026-05-07 06:18 | 52.26496 | 13.26098 | 3013 ft | 145 kts | 346° |
| 2026-05-07 06:19 | 52.27451 | 13.25585 | 3011 ft | 145 kts | 345° |
| 2026-05-07 06:19 | 52.28419 | 13.25139 | 2997 ft | 141 kts | 4° |
| 2026-05-07 06:19 | 52.29268 | 13.25753 | 2967 ft | 138 kts | 47° |
| 2026-05-07 06:19 | 52.29787 | 13.27097 | 2793 ft | 138 kts | 63° |
| 2026-05-07 06:20 | 52.30184 | 13.28509 | 2591 ft | 137 kts | 64° |
| 2026-05-07 06:20 | 52.30553 | 13.29954 | 2427 ft | 136 kts | 65° |
| 2026-05-07 06:20 | 52.30906 | 13.31396 | 2226 ft | 136 kts | 66° |
| 2026-05-07 06:20 | 52.31251 | 13.32844 | 2022 ft | 136 kts | 66° |
| 2026-05-07 06:21 | 52.31594 | 13.34290 | 1827 ft | 135 kts | 66° |
| 2026-05-07 06:21 | 52.31929 | 13.35717 | 1636 ft | 135 kts | 67° |
| 2026-05-07 06:21 | 52.32266 | 13.37147 | 1453 ft | 135 kts | 67° |
| 2026-05-07 06:21 | 52.32594 | 13.38577 | 1267 ft | 134 kts | 66° |
| 2026-05-07 06:22 | 52.32931 | 13.39994 | 1092 ft | 134 kts | 68° |
| 2026-05-07 06:22 | 52.33592 | 13.42813 | 727 ft | 133 kts | 68° |
| 2026-05-07 06:22 | 52.33923 | 13.44216 | 544 ft | 132 kts | 67° |
| 2026-05-07 06:23 | 52.34254 | 13.45614 | 363 ft | 132 kts | 67° |
| 2026-05-07 06:23 | 52.34589 | 13.47032 | 182 ft | 131 kts | 67° |
| 2026-05-07 06:23 | 52.34891 | 13.48293 | 167 ft | 101 kts | 68° |
| 2026-05-07 06:23 | 52.35085 | 13.49112 | 167 ft | 60 kts | 68° |
| 2026-05-07 06:24 | 52.35175 | 13.49487 | 167 ft | 0 kts | 72° |